Time;durP1;ratioP1;P1;durP2;ratioP2;P2;SDS_P1;SDS_P2;PMS_P1;PMS_P2;Temp;Humidity;BMP_temperature;BMP_pressure;BME280_temperature;BME280_humidity;BME280_pressure;Samples;Min_cycle;Max_cycle;Signal;HPM_P1;HPM_P2
2021/10/17 00:00:00;;;;;;;9.37;3.63;;;5.80;99.90;;;;;;5114823;27;20608;-68
2021/10/17 00:02:27;;;;;;;6.20;3.40;;;5.90;99.90;;;;;;5126695;27;20196;-68
2021/10/17 00:04:54;;;;;;;10.83;3.33;;;5.90;99.90;;;;;;5132705;27;20300;-68
2021/10/17 00:07:22;;;;;;;6.43;3.50;;;5.90;99.90;;;;;;5129181;27;20204;-68
2021/10/17 00:09:49;;;;;;;9.20;4.00;;;5.80;99.90;;;;;;5128125;27;20192;-68
2021/10/17 00:12:16;;;;;;;5.63;3.17;;;5.70;99.90;;;;;;5131183;27;20232;-68
2021/10/17 00:14:43;;;;;;;5.30;3.20;;;5.70;99.90;;;;;;5115756;27;20220;-68
2021/10/17 00:17:10;;;;;;;6.10;3.27;;;5.80;99.90;;;;;;5117115;27;20666;-68
2021/10/17 00:19:37;;;;;;;6.77;3.37;;;6.00;99.90;;;;;;5123362;27;20693;-68
2021/10/17 00:22:05;;;;;;;6.43;3.20;;;5.90;99.90;;;;;;5132376;27;20196;-68
2021/10/17 00:24:33;;;;;;;6.10;3.00;;;5.90;99.90;;;;;;5132698;27;20209;-68
2021/10/17 00:27:00;;;;;;;8.60;3.60;;;6.10;99.90;;;;;;5132580;27;20193;-68
2021/10/17 00:29:27;;;;;;;6.10;3.57;;;5.90;99.90;;;;;;5130093;27;20208;-68
2021/10/17 00:31:54;;;;;;;8.63;4.27;;;6.00;99.90;;;;;;5132125;27;20532;-68
2021/10/17 00:34:21;;;;;;;8.53;3.70;;;5.90;99.90;;;;;;5132816;27;20201;-68
2021/10/17 00:36:48;;;;;;;9.17;3.80;;;6.00;99.90;;;;;;5132561;27;20615;-68
2021/10/17 00:39:15;;;;;;;9.60;3.70;;;6.00;99.90;;;;;;5117191;27;20219;-68
2021/10/17 00:41:43;;;;;;;9.13;3.73;;;6.10;99.90;;;;;;5129103;27;20196;-68
2021/10/17 00:44:10;;;;;;;6.93;3.70;;;6.10;99.90;;;;;;5132624;27;20197;-68
2021/10/17 00:46:37;;;;;;;8.33;3.73;;;6.10;99.90;;;;;;5130794;27;20671;-68
2021/10/17 00:49:04;;;;;;;6.27;3.53;;;6.20;99.90;;;;;;5123391;27;20200;-68
2021/10/17 00:51:30;;;;;;;6.67;3.47;;;6.10;99.90;;;;;;5131997;27;20646;-68
2021/10/17 00:53:57;;;;;;;11.03;4.70;;;6.10;99.90;;;;;;5120920;28;20201;-68
2021/10/17 00:56:24;;;;;;;7.90;3.60;;;6.10;99.90;;;;;;5114171;28;20209;-68
2021/10/17 00:58:52;;;;;;;11.13;4.33;;;6.10;99.90;;;;;;5131123;28;20193;-68
2021/10/17 01:01:19;;;;;;;7.07;4.27;;;6.10;99.90;;;;;;5123105;28;20240;-68
2021/10/17 01:03:46;;;;;;;9.00;3.50;;;6.20;99.90;;;;;;5132167;28;20226;-68
2021/10/17 01:06:13;;;;;;;9.07;3.50;;;6.30;99.90;;;;;;5132452;28;20214;-68
2021/10/17 01:08:40;;;;;;;10.10;4.30;;;6.30;99.90;;;;;;5124566;28;20208;-68
2021/10/17 01:11:09;;;;;;;8.70;3.47;;;6.20;99.90;;;;;;5129822;28;20249;-68
2021/10/17 01:13:36;;;;;;;9.10;3.63;;;6.20;99.90;;;;;;5129589;28;20228;-68
2021/10/17 01:16:05;;;;;;;8.77;4.20;;;6.20;99.90;;;;;;5130221;27;20206;-68
2021/10/17 01:18:32;;;;;;;8.50;4.20;;;6.30;99.90;;;;;;5125399;27;20207;-68
2021/10/17 01:21:01;;;;;;;8.03;3.70;;;6.20;99.90;;;;;;5130822;27;20220;-68
2021/10/17 01:23:28;;;;;;;10.17;4.07;;;6.20;99.90;;;;;;5130128;28;20193;-68
2021/10/17 01:25:55;;;;;;;8.40;3.70;;;6.30;99.90;;;;;;5130728;28;20192;-68
2021/10/17 01:28:22;;;;;;;6.47;3.57;;;6.30;99.90;;;;;;5123999;28;20217;-68
2021/10/17 01:30:49;;;;;;;8.27;3.97;;;6.30;99.90;;;;;;5114571;28;20211;-68
2021/10/17 01:33:16;;;;;;;5.97;3.23;;;6.30;99.90;;;;;;5132015;28;20196;-68
2021/10/17 01:35:43;;;;;;;10.90;3.50;;;6.40;99.90;;;;;;5131584;27;20192;-68
2021/10/17 01:38:11;;;;;;;9.33;3.30;;;6.40;99.90;;;;;;5130202;27;20540;-68
2021/10/17 01:40:38;;;;;;;7.43;3.60;;;6.50;99.90;;;;;;5131101;28;20216;-68
2021/10/17 01:43:06;;;;;;;8.53;3.27;;;6.60;99.90;;;;;;5130760;28;20209;-68
2021/10/17 01:45:33;;;;;;;7.07;3.10;;;6.70;99.90;;;;;;5132064;27;20203;-68
2021/10/17 01:48:00;;;;;;;11.03;3.90;;;6.80;99.90;;;;;;5129499;28;20193;-68
2021/10/17 01:50:27;;;;;;;10.77;3.50;;;6.70;99.90;;;;;;5111882;28;20644;-68
2021/10/17 01:52:54;;;;;;;11.20;3.63;;;6.70;99.90;;;;;;5120958;28;20277;-68
2021/10/17 01:55:22;;;;;;;6.13;3.20;;;6.90;99.90;;;;;;5110962;28;20205;-69
2021/10/17 01:57:49;;;;;;;7.73;3.63;;;6.90;99.90;;;;;;5124081;28;20188;-68
2021/10/17 02:00:16;;;;;;;6.60;3.30;;;6.80;99.90;;;;;;5129478;28;20576;-68
2021/10/17 02:02:43;;;;;;;8.53;3.70;;;6.90;99.90;;;;;;5117294;27;20204;-69
2021/10/17 02:05:10;;;;;;;7.93;3.00;;;6.90;99.90;;;;;;5125142;27;20646;-68
2021/10/17 02:07:37;;;;;;;12.10;3.93;;;6.80;99.90;;;;;;5131140;27;20538;-68
2021/10/17 02:10:06;;;;;;;6.93;3.63;;;6.90;99.90;;;;;;5130825;27;20285;-68
2021/10/17 02:12:34;;;;;;;8.07;3.40;;;6.90;99.90;;;;;;5133427;27;20650;-68
2021/10/17 02:15:04;;;;;;;8.43;3.33;;;7.00;99.90;;;;;;5123454;27;20205;-68
2021/10/17 02:17:32;;;;;;;5.67;3.00;;;7.10;99.90;;;;;;5130341;27;20704;-68
2021/10/17 02:19:59;;;;;;;8.33;3.03;;;7.00;99.90;;;;;;5118441;27;20219;-68
2021/10/17 02:22:25;;;;;;;9.87;2.90;;;7.00;99.90;;;;;;5118839;27;20204;-68
2021/10/17 02:24:52;;;;;;;8.13;3.47;;;7.00;99.90;;;;;;5132612;27;20564;-68
2021/10/17 02:27:19;;;;;;;8.40;3.03;;;7.10;99.90;;;;;;5118002;27;20205;-68
2021/10/17 02:29:47;;;;;;;6.83;3.40;;;7.10;99.90;;;;;;5123593;27;20192;-68
2021/10/17 02:32:14;;;;;;;9.90;3.07;;;7.10;99.90;;;;;;5130557;27;20575;-68
2021/10/17 02:34:41;;;;;;;7.13;3.23;;;7.00;99.90;;;;;;5121624;27;20200;-68
2021/10/17 02:37:08;;;;;;;8.43;3.73;;;7.00;99.90;;;;;;5122937;27;20199;-67
2021/10/17 02:39:35;;;;;;;5.70;3.30;;;7.00;99.90;;;;;;5124903;27;20200;-67
2021/10/17 02:42:02;;;;;;;6.93;3.40;;;7.00;99.90;;;;;;5126734;27;20216;-67
2021/10/17 02:44:28;;;;;;;6.70;3.20;;;7.10;99.90;;;;;;5130803;27;20197;-67
2021/10/17 02:46:57;;;;;;;11.00;3.57;;;7.10;99.90;;;;;;5132483;27;20211;-67
2021/10/17 02:49:24;;;;;;;9.10;2.90;;;7.20;99.90;;;;;;5129279;27;20204;-67
2021/10/17 02:51:51;;;;;;;4.73;3.00;;;7.30;99.90;;;;;;5130569;27;20200;-67
2021/10/17 02:54:18;;;;;;;7.03;3.03;;;7.30;99.90;;;;;;5126632;27;20201;-67
2021/10/17 02:56:45;;;;;;;5.97;2.73;;;7.30;99.90;;;;;;5132240;27;20650;-67
2021/10/17 02:59:12;;;;;;;12.53;4.07;;;7.30;99.90;;;;;;5128839;27;20212;-67
2021/10/17 03:01:39;;;;;;;8.80;3.20;;;7.40;99.90;;;;;;5113321;27;20248;-67
2021/10/17 03:04:07;;;;;;;9.70;3.90;;;7.50;99.90;;;;;;5118810;27;20207;-67
2021/10/17 03:06:34;;;;;;;10.00;2.90;;;7.60;99.90;;;;;;5114038;27;20678;-67
2021/10/17 03:09:01;;;;;;;6.13;3.07;;;7.60;99.90;;;;;;5124844;27;20212;-67
2021/10/17 03:11:28;;;;;;;9.37;3.40;;;7.60;99.90;;;;;;5119549;27;20675;-67
2021/10/17 03:13:55;;;;;;;8.57;2.83;;;7.70;99.90;;;;;;5121375;27;20196;-67
2021/10/17 03:16:21;;;;;;;9.00;3.37;;;7.70;99.90;;;;;;5130370;27;20646;-67
2021/10/17 03:18:48;;;;;;;7.77;3.20;;;7.70;99.90;;;;;;5132196;27;20215;-67
2021/10/17 03:21:16;;;;;;;8.57;2.90;;;7.70;99.90;;;;;;5132936;27;20220;-67
2021/10/17 03:23:43;;;;;;;10.73;3.77;;;7.70;99.90;;;;;;5131682;27;20200;-67
2021/10/17 03:26:10;;;;;;;8.87;3.30;;;7.70;99.90;;;;;;5125138;27;20212;-67
2021/10/17 03:28:37;;;;;;;10.67;3.73;;;7.80;99.90;;;;;;5127875;27;20200;-67
2021/10/17 03:31:06;;;;;;;9.73;3.10;;;7.80;99.90;;;;;;5130060;27;20192;-67
2021/10/17 03:33:33;;;;;;;10.13;3.70;;;7.80;99.90;;;;;;5133048;27;20211;-67
2021/10/17 03:36:00;;;;;;;8.97;3.37;;;7.90;99.90;;;;;;5131655;27;20203;-67
2021/10/17 03:38:28;;;;;;;8.97;3.70;;;7.90;99.90;;;;;;5127234;27;20200;-68
2021/10/17 03:40:55;;;;;;;11.00;4.47;;;7.90;99.90;;;;;;5122550;27;20226;-67
2021/10/17 03:43:22;;;;;;;10.60;3.90;;;8.00;99.90;;;;;;5120886;27;20651;-67
2021/10/17 03:45:49;;;;;;;8.57;3.60;;;8.00;99.90;;;;;;5128155;27;20204;-67
2021/10/17 03:48:16;;;;;;;9.47;3.70;;;8.10;99.90;;;;;;5130060;27;20204;-67
2021/10/17 03:50:42;;;;;;;9.53;3.90;;;8.10;99.90;;;;;;5119067;27;20215;-67
2021/10/17 03:53:09;;;;;;;14.30;4.90;;;8.10;99.90;;;;;;5129860;27;20200;-67
2021/10/17 03:55:38;;;;;;;10.43;4.17;;;8.00;99.90;;;;;;5131855;27;20202;-67
2021/10/17 03:58:05;;;;;;;7.20;3.67;;;8.10;99.90;;;;;;5124241;27;20203;-67
2021/10/17 04:00:32;;;;;;;12.23;3.97;;;8.10;99.90;;;;;;5126956;27;20778;-67
2021/10/17 04:02:58;;;;;;;7.03;3.60;;;8.00;99.90;;;;;;5118265;27;20201;-67
2021/10/17 04:05:25;;;;;;;14.60;4.83;;;8.00;99.90;;;;;;5119097;27;20513;-67
2021/10/17 04:07:52;;;;;;;15.40;4.83;;;8.00;99.90;;;;;;5121486;27;20201;-67
2021/10/17 04:10:19;;;;;;;12.37;4.43;;;8.00;99.90;;;;;;5120177;27;20205;-67
2021/10/17 04:12:47;;;;;;;7.40;4.07;;;8.00;99.90;;;;;;5130719;27;20199;-67
2021/10/17 04:15:14;;;;;;;14.60;4.37;;;8.00;99.90;;;;;;5130647;27;20563;-67
2021/10/17 04:17:41;;;;;;;8.40;3.80;;;8.00;99.90;;;;;;5127128;27;20237;-67
2021/10/17 04:20:08;;;;;;;13.47;4.37;;;8.00;99.90;;;;;;5126762;27;20569;-67
2021/10/17 04:22:35;;;;;;;8.60;3.83;;;8.10;99.90;;;;;;5129111;27;20216;-68
2021/10/17 04:25:03;;;;;;;9.20;3.97;;;8.10;99.90;;;;;;5130804;27;20196;-67
2021/10/17 04:27:31;;;;;;;11.63;4.30;;;8.10;99.90;;;;;;5127970;27;20226;-67
2021/10/17 04:29:59;;;;;;;11.17;4.17;;;8.10;99.90;;;;;;5122314;27;20565;-67
2021/10/17 04:32:27;;;;;;;7.93;4.17;;;8.10;99.90;;;;;;5122155;27;20193;-67
2021/10/17 04:34:53;;;;;;;12.43;4.30;;;8.10;99.90;;;;;;5117113;27;20228;-67
2021/10/17 04:37:20;;;;;;;13.93;4.20;;;8.20;99.90;;;;;;5125830;27;20209;-67
2021/10/17 04:39:47;;;;;;;9.13;4.20;;;8.20;99.90;;;;;;5125197;27;20200;-67
2021/10/17 04:42:14;;;;;;;7.60;3.93;;;8.20;99.90;;;;;;5120314;27;20216;-67
2021/10/17 04:44:41;;;;;;;9.83;4.53;;;8.20;99.90;;;;;;5121094;27;20666;-67
2021/10/17 04:47:09;;;;;;;8.57;4.40;;;8.10;99.90;;;;;;5115555;27;20634;-67
2021/10/17 04:49:36;;;;;;;12.67;4.80;;;8.10;99.90;;;;;;5122149;27;20469;-67
2021/10/17 04:52:03;;;;;;;9.07;4.53;;;8.20;99.90;;;;;;5111044;27;20765;-67
2021/10/17 04:54:30;;;;;;;11.13;4.43;;;8.20;99.90;;;;;;5127888;27;20207;-67
2021/10/17 04:56:57;;;;;;;8.10;4.27;;;8.20;99.90;;;;;;5133091;27;20192;-67
2021/10/17 04:59:24;;;;;;;10.93;4.70;;;8.20;99.90;;;;;;5133845;27;20204;-67
2021/10/17 05:01:51;;;;;;;13.63;4.50;;;8.20;99.90;;;;;;5121088;28;20220;-67
2021/10/17 05:04:19;;;;;;;11.50;4.27;;;8.20;99.90;;;;;;5132528;27;20204;-67
2021/10/17 05:06:46;;;;;;;8.60;4.20;;;8.20;99.90;;;;;;5131379;27;20207;-67
2021/10/17 05:09:13;;;;;;;13.40;4.20;;;8.20;99.90;;;;;;5125224;28;20202;-67
2021/10/17 05:11:40;;;;;;;9.40;4.60;;;8.20;99.90;;;;;;5112127;27;20205;-67
2021/10/17 05:14:07;;;;;;;8.90;4.00;;;8.20;99.90;;;;;;5119321;27;20222;-67
2021/10/17 05:16:34;;;;;;;13.23;4.20;;;8.20;99.90;;;;;;5127415;28;20222;-67
2021/10/17 05:19:01;;;;;;;10.53;4.40;;;8.20;99.90;;;;;;5127880;28;20197;-67
2021/10/17 05:21:29;;;;;;;9.57;4.50;;;8.20;99.90;;;;;;5129158;28;20584;-67
2021/10/17 05:23:56;;;;;;;8.87;4.30;;;8.20;99.90;;;;;;5130514;27;20192;-67
2021/10/17 05:26:23;;;;;;;9.63;4.17;;;8.20;99.90;;;;;;5132214;28;20227;-67
2021/10/17 05:28:50;;;;;;;11.27;4.80;;;8.20;99.90;;;;;;5126893;27;20211;-67
2021/10/17 05:31:17;;;;;;;11.73;4.87;;;8.30;99.90;;;;;;5132179;28;20564;-67
2021/10/17 05:33:44;;;;;;;10.03;4.37;;;8.30;99.90;;;;;;5129345;28;20556;-67
2021/10/17 05:36:12;;;;;;;11.57;4.17;;;8.20;99.90;;;;;;5131802;27;20287;-67
2021/10/17 05:38:41;;;;;;;10.20;5.30;;;8.20;99.90;;;;;;5132545;27;20273;-67
2021/10/17 05:41:08;;;;;;;7.77;4.33;;;8.30;99.90;;;;;;5129190;27;20193;-67
2021/10/17 05:43:35;;;;;;;14.60;5.17;;;8.30;99.90;;;;;;5134426;27;20207;-67
2021/10/17 05:46:02;;;;;;;14.97;6.37;;;8.30;99.90;;;;;;5119710;27;20196;-67
2021/10/17 05:48:29;;;;;;;13.20;5.43;;;8.30;99.90;;;;;;5131792;27;20569;-68
2021/10/17 05:50:56;;;;;;;13.27;5.20;;;8.30;99.90;;;;;;5131047;27;20567;-67
2021/10/17 05:53:22;;;;;;;12.87;4.73;;;8.30;99.90;;;;;;5128737;27;20200;-67
2021/10/17 05:55:51;;;;;;;12.00;5.33;;;8.30;99.90;;;;;;5135948;27;20206;-67
2021/10/17 05:58:17;;;;;;;13.50;4.70;;;8.20;99.90;;;;;;5131657;27;20192;-68
2021/10/17 06:00:44;;;;;;;11.73;5.37;;;8.20;99.90;;;;;;5133654;27;20562;-67
2021/10/17 06:03:11;;;;;;;16.37;4.67;;;8.20;99.90;;;;;;5134596;27;20219;-67
2021/10/17 06:05:38;;;;;;;9.13;4.40;;;8.20;99.90;;;;;;5135698;27;20210;-67
2021/10/17 06:08:05;;;;;;;17.47;5.33;;;8.20;99.90;;;;;;5132201;27;20291;-67
2021/10/17 06:10:32;;;;;;;13.50;4.60;;;8.20;99.90;;;;;;5128266;27;20201;-67
2021/10/17 06:13:00;;;;;;;10.20;4.97;;;8.20;99.90;;;;;;5121219;27;20191;-67
2021/10/17 06:15:27;;;;;;;11.23;5.37;;;8.20;99.90;;;;;;5115112;28;20212;-67
2021/10/17 06:17:54;;;;;;;8.03;4.43;;;8.20;99.90;;;;;;5119442;27;20642;-67
2021/10/17 06:20:21;;;;;;;10.33;5.13;;;8.20;99.90;;;;;;5133943;27;20206;-67
2021/10/17 06:22:48;;;;;;;8.73;4.80;;;8.20;99.90;;;;;;5132287;27;20402;-67
2021/10/17 06:25:15;;;;;;;12.47;5.80;;;8.20;99.90;;;;;;5135046;27;20200;-67
2021/10/17 06:27:42;;;;;;;10.27;5.00;;;8.30;99.90;;;;;;5132994;27;20204;-67
2021/10/17 06:30:11;;;;;;;9.43;5.53;;;8.30;99.90;;;;;;5134269;27;20306;-67
2021/10/17 06:32:37;;;;;;;10.27;4.77;;;8.30;99.90;;;;;;5117590;27;20192;-68
2021/10/17 06:35:05;;;;;;;13.20;5.10;;;8.30;99.90;;;;;;5114667;27;20215;-69
2021/10/17 06:37:32;;;;;;;14.87;6.23;;;8.30;99.90;;;;;;5131338;27;20192;-67
2021/10/17 06:39:59;;;;;;;15.03;5.60;;;8.30;99.90;;;;;;5133520;27;20572;-67
2021/10/17 06:42:26;;;;;;;15.73;5.77;;;8.30;99.90;;;;;;5126038;27;20231;-67
2021/10/17 06:44:52;;;;;;;18.00;9.30;;;8.40;99.90;;;;;;5126509;27;20192;-67
2021/10/17 06:47:21;;;;;;;13.27;5.97;;;8.40;99.90;;;;;;5130794;27;20192;-67
2021/10/17 06:49:47;;;;;;;21.80;8.33;;;8.40;99.90;;;;;;5133324;27;20202;-68
2021/10/17 06:52:14;;;;;;;11.00;4.73;;;8.50;99.90;;;;;;5123691;27;20430;-68
2021/10/17 06:54:42;;;;;;;11.60;4.70;;;8.50;99.90;;;;;;5117000;27;20201;-68
2021/10/17 06:57:09;;;;;;;11.77;4.83;;;8.60;99.90;;;;;;5119186;27;20568;-68
2021/10/17 06:59:36;;;;;;;9.50;4.73;;;8.60;99.90;;;;;;5122804;27;20215;-68
2021/10/17 07:02:03;;;;;;;10.43;4.47;;;8.70;99.90;;;;;;5117434;27;20597;-68
2021/10/17 07:04:31;;;;;;;10.13;5.03;;;8.70;99.90;;;;;;5116839;27;20205;-68
2021/10/17 07:06:57;;;;;;;10.87;4.50;;;8.80;99.90;;;;;;5120980;27;20640;-68
2021/10/17 07:09:24;;;;;;;11.43;4.47;;;8.80;99.90;;;;;;5116183;27;20201;-68
2021/10/17 07:11:52;;;;;;;9.13;4.20;;;8.90;99.90;;;;;;5124532;27;20193;-68
2021/10/17 07:14:19;;;;;;;10.13;4.67;;;9.00;99.90;;;;;;5118142;27;20638;-68
2021/10/17 07:16:46;;;;;;;11.30;4.37;;;9.00;99.90;;;;;;5123193;27;20196;-68
2021/10/17 07:19:12;;;;;;;11.50;4.70;;;9.10;99.90;;;;;;5118324;27;20216;-68
2021/10/17 07:21:41;;;;;;;10.47;4.23;;;9.10;99.90;;;;;;5121661;27;20197;-68
2021/10/17 07:24:08;;;;;;;9.40;4.00;;;9.10;99.90;;;;;;5115967;27;20659;-68
2021/10/17 07:26:34;;;;;;;10.00;4.10;;;9.10;99.90;;;;;;5118513;27;20193;-67
2021/10/17 07:29:01;;;;;;;12.33;4.73;;;9.20;99.90;;;;;;5116056;27;20200;-68
2021/10/17 07:31:28;;;;;;;11.43;4.03;;;9.20;99.90;;;;;;5115864;27;20667;-68
2021/10/17 07:33:55;;;;;;;11.27;4.77;;;9.20;99.90;;;;;;5121734;27;20197;-68
2021/10/17 07:36:22;;;;;;;14.47;4.93;;;9.30;99.90;;;;;;5121785;27;20676;-68
2021/10/17 07:38:50;;;;;;;10.70;4.33;;;9.50;99.90;;;;;;5120437;27;20658;-68
2021/10/17 07:41:17;;;;;;;10.07;4.40;;;9.50;99.90;;;;;;5117058;27;20207;-68
2021/10/17 07:43:43;;;;;;;10.13;4.43;;;9.60;99.90;;;;;;5122252;27;20220;-68
2021/10/17 07:46:10;;;;;;;11.17;4.20;;;9.70;99.90;;;;;;5122071;27;20201;-67
2021/10/17 07:48:38;;;;;;;11.17;4.77;;;9.70;99.90;;;;;;5113062;27;20207;-67
2021/10/17 07:51:06;;;;;;;10.73;4.77;;;9.70;99.90;;;;;;5122678;27;20205;-68
2021/10/17 07:53:32;;;;;;;10.00;4.40;;;9.80;99.90;;;;;;5117137;27;20212;-68
2021/10/17 07:56:01;;;;;;;14.17;5.43;;;9.80;99.90;;;;;;5120325;27;20196;-68
2021/10/17 07:58:28;;;;;;;10.27;5.17;;;9.90;99.90;;;;;;5116533;27;20652;-68
2021/10/17 08:00:55;;;;;;;14.73;5.73;;;9.90;99.90;;;;;;5115475;27;20662;-68
2021/10/17 08:03:22;;;;;;;13.43;5.13;;;9.90;99.90;;;;;;5120627;27;20235;-68
2021/10/17 08:05:49;;;;;;;11.23;4.93;;;9.90;99.90;;;;;;5116703;27;20575;-68
2021/10/17 08:08:16;;;;;;;11.87;5.27;;;10.10;99.90;;;;;;5122016;27;20206;-68
2021/10/17 08:10:43;;;;;;;10.23;4.77;;;10.10;99.90;;;;;;5119092;27;20196;-68
2021/10/17 08:13:11;;;;;;;16.30;6.47;;;10.20;99.90;;;;;;5115955;27;20534;-68
2021/10/17 08:15:38;;;;;;;13.80;5.67;;;10.10;99.90;;;;;;5120428;27;20215;-68
2021/10/17 08:18:05;;;;;;;14.63;6.20;;;10.10;99.90;;;;;;5115173;27;20199;-68
2021/10/17 08:20:32;;;;;;;14.47;5.37;;;10.10;99.90;;;;;;5119893;27;20730;-68
2021/10/17 08:22:59;;;;;;;11.93;5.80;;;10.20;99.90;;;;;;5117973;27;20580;-68
2021/10/17 08:25:26;;;;;;;15.07;5.90;;;10.10;99.90;;;;;;5115440;27;20201;-68
2021/10/17 08:27:53;;;;;;;13.93;5.90;;;10.10;99.90;;;;;;5119113;27;20463;-68
2021/10/17 08:30:21;;;;;;;12.03;5.83;;;10.10;99.90;;;;;;5111432;27;20200;-68
2021/10/17 08:32:48;;;;;;;11.47;5.43;;;10.10;99.90;;;;;;5118390;27;20635;-68
2021/10/17 08:35:14;;;;;;;12.40;5.90;;;10.10;99.90;;;;;;5119683;27;20213;-68
2021/10/17 08:37:41;;;;;;;14.07;6.13;;;10.10;99.90;;;;;;5123346;27;20221;-68
2021/10/17 08:40:10;;;;;;;13.47;5.73;;;10.00;99.90;;;;;;5116168;27;20203;-68
2021/10/17 08:42:37;;;;;;;13.50;5.97;;;10.10;99.90;;;;;;5121468;27;20264;-68
2021/10/17 08:45:04;;;;;;;12.83;5.47;;;10.10;99.90;;;;;;5120582;27;20204;-68
2021/10/17 08:47:34;;;;;;;9.63;5.10;;;10.10;99.90;;;;;;5119792;27;20193;-68
2021/10/17 08:50:02;;;;;;;12.10;5.90;;;10.20;99.90;;;;;;5116126;28;20209;-68
2021/10/17 08:52:28;;;;;;;12.27;5.30;;;10.30;99.90;;;;;;5116244;28;20628;-68
2021/10/17 08:54:55;;;;;;;9.23;5.17;;;10.30;99.90;;;;;;5119931;28;20201;-68
2021/10/17 08:57:23;;;;;;;15.77;5.63;;;10.30;99.90;;;;;;5121727;27;20204;-68
2021/10/17 08:59:51;;;;;;;11.90;5.57;;;10.30;99.90;;;;;;5114170;27;20209;-68
2021/10/17 09:02:20;;;;;;;15.63;5.90;;;10.40;99.90;;;;;;5113065;28;20231;-68
2021/10/17 09:05:00;;;;;;;9.57;5.37;;;10.30;99.90;;;;;;5114223;28;20481;-68
2021/10/17 09:07:27;;;;;;;13.97;6.27;;;10.30;99.90;;;;;;5117854;28;20204;-68
2021/10/17 09:10:08;;;;;;;11.30;5.97;;;10.40;99.90;;;;;;5114409;28;20295;-67
2021/10/17 09:12:36;;;;;;;13.77;5.30;;;10.40;99.90;;;;;;5120572;27;20200;-68
2021/10/17 09:15:26;;;;;;;11.50;4.83;;;10.30;99.90;;;;;;5121400;27;20205;-68
2021/10/17 09:18:13;;;;;;;14.23;5.23;;;10.40;99.90;;;;;;5123111;27;20201;-68
2021/10/17 09:20:56;;;;;;;13.27;5.50;;;10.40;99.90;;;;;;5123339;27;20772;-68
2021/10/17 09:23:52;;;;;;;15.93;5.67;;;10.40;99.90;;;;;;5124812;27;20228;-68
2021/10/17 09:26:19;;;;;;;15.67;6.47;;;10.40;99.90;;;;;;5108432;27;20204;-68
2021/10/17 09:28:46;;;;;;;15.33;5.97;;;10.50;99.90;;;;;;5122853;27;20201;-68
2021/10/17 09:31:15;;;;;;;10.83;5.87;;;10.50;99.90;;;;;;5125176;27;20207;-68
2021/10/17 09:33:45;;;;;;;12.67;5.90;;;10.60;99.90;;;;;;5117813;27;20261;-68
2021/10/17 09:36:22;;;;;;;12.97;5.60;;;10.60;99.90;;;;;;5119116;27;20200;-68
2021/10/17 09:38:51;;;;;;;13.33;5.37;;;10.60;99.90;;;;;;5118151;27;20219;-68
2021/10/17 09:41:20;;;;;;;14.30;5.97;;;10.60;99.90;;;;;;5121902;27;20521;-69
2021/10/17 09:43:57;;;;;;;11.33;4.53;;;10.60;99.90;;;;;;5119888;27;20223;-69
2021/10/17 09:46:25;;;;;;;12.67;5.23;;;10.70;99.90;;;;;;5123616;27;20208;-68
2021/10/17 09:48:52;;;;;;;12.43;5.30;;;10.70;99.90;;;;;;5118092;27;20205;-69
2021/10/17 09:51:24;;;;;;;13.17;5.10;;;10.70;99.90;;;;;;5116331;27;20213;-68
2021/10/17 09:53:53;;;;;;;19.83;6.30;;;10.80;99.90;;;;;;5127882;27;20196;-70
2021/10/17 09:56:30;;;;;;;15.57;4.70;;;10.80;99.90;;;;;;5117464;27;20204;-71
2021/10/17 09:58:58;;;;;;;13.00;4.73;;;10.70;99.90;;;;;;5122291;27;20204;-71
2021/10/17 10:01:26;;;;;;;10.17;4.30;;;10.80;99.90;;;;;;5118895;27;20201;-68
2021/10/17 10:03:53;;;;;;;9.90;4.57;;;10.90;99.90;;;;;;5128330;27;20212;-68
2021/10/17 10:06:23;;;;;;;12.07;4.90;;;10.90;99.90;;;;;;5119748;27;20216;-68
2021/10/17 10:08:52;;;;;;;12.90;4.23;;;10.90;99.90;;;;;;5118853;27;20570;-68
2021/10/17 10:11:22;;;;;;;14.17;4.90;;;11.10;99.90;;;;;;5125640;27;20222;-67
2021/10/17 10:13:51;;;;;;;12.27;5.03;;;11.10;99.90;;;;;;5120492;27;20201;-68
2021/10/17 10:16:20;;;;;;;7.67;4.63;;;11.20;99.90;;;;;;5119467;27;20203;-68
2021/10/17 10:18:49;;;;;;;8.67;4.13;;;11.40;99.90;;;;;;5127564;27;20202;-68
2021/10/17 10:21:16;;;;;;;13.33;6.27;;;11.40;99.90;;;;;;5125157;27;20567;-68
2021/10/17 10:23:45;;;;;;;10.87;4.63;;;11.50;99.90;;;;;;5123904;27;20213;-69
2021/10/17 10:26:12;;;;;;;11.53;4.80;;;11.50;99.90;;;;;;5126322;27;20203;-68
2021/10/17 10:28:40;;;;;;;11.73;4.50;;;11.60;99.90;;;;;;5126827;27;20196;-68
2021/10/17 10:31:07;;;;;;;11.03;4.77;;;11.60;99.90;;;;;;5120371;27;20207;-68
2021/10/17 10:33:42;;;;;;;14.20;5.17;;;11.70;99.90;;;;;;5120026;27;20280;-68
2021/10/17 10:36:12;;;;;;;9.00;4.30;;;11.70;99.90;;;;;;5125765;27;20211;-74
2021/10/17 10:39:17;;;;;;;8.93;4.40;;;11.70;99.90;;;;;;5124349;27;20607;-74
2021/10/17 10:41:57;;;;;;;11.43;4.20;;;11.70;99.90;;;;;;5121095;27;20204;-74
2021/10/17 10:44:27;;;;;;;9.70;4.27;;;11.80;99.90;;;;;;5119330;27;20219;-74
2021/10/17 10:46:55;;;;;;;11.40;4.07;;;11.80;99.90;;;;;;5118237;27;20215;-74
2021/10/17 10:49:43;;;;;;;9.77;3.87;;;11.90;99.90;;;;;;5119738;27;20197;-74
2021/10/17 10:52:31;;;;;;;9.87;4.30;;;12.00;99.90;;;;;;5119390;27;20205;-74
2021/10/17 10:55:00;;;;;;;12.17;4.50;;;12.00;99.90;;;;;;5119753;27;20196;-74
2021/10/17 10:57:30;;;;;;;11.60;5.40;;;12.00;99.90;;;;;;5125971;27;20205;-74
2021/10/17 11:00:00;;;;;;;8.80;4.27;;;12.10;99.90;;;;;;5118555;27;20246;-75
2021/10/17 11:02:27;;;;;;;9.53;3.80;;;12.10;99.90;;;;;;5125903;27;20654;-74
2021/10/17 11:05:07;;;;;;;12.37;4.67;;;12.10;99.90;;;;;;5119558;27;20223;-74
2021/10/17 11:07:39;;;;;;;11.77;4.00;;;12.10;99.90;;;;;;5123363;27;20283;-74
2021/10/17 11:10:36;;;;;;;9.20;4.27;;;12.30;99.90;;;;;;5122865;27;20288;-74
2021/10/17 11:13:06;;;;;;;9.50;4.27;;;12.40;99.90;;;;;;5122954;27;20201;-74
2021/10/17 11:15:34;;;;;;;12.63;4.37;;;12.50;99.90;;;;;;5123391;27;20200;-74
2021/10/17 11:18:04;;;;;;;12.03;4.23;;;12.60;99.90;;;;;;5114220;27;20237;-74
2021/10/17 11:20:35;;;;;;;10.37;3.87;;;12.50;99.90;;;;;;5123994;27;20212;-74
2021/10/17 11:23:03;;;;;;;9.07;4.20;;;12.80;99.90;;;;;;5123400;27;20220;-74
2021/10/17 11:25:30;;;;;;;7.90;3.67;;;12.80;99.90;;;;;;5120296;27;20201;-74
2021/10/17 11:27:57;;;;;;;7.87;4.23;;;12.80;99.90;;;;;;5118557;27;20208;-74
2021/10/17 11:30:27;;;;;;;7.57;3.80;;;12.80;99.90;;;;;;5126537;27;20705;-74
2021/10/17 11:32:55;;;;;;;12.50;4.53;;;12.90;99.90;;;;;;5121394;27;20625;-75
2021/10/17 11:35:30;;;;;;;11.50;4.80;;;12.90;99.90;;;;;;5123355;27;20201;-74
2021/10/17 11:37:59;;;;;;;8.33;3.80;;;12.90;99.90;;;;;;5118748;27;20196;-75
2021/10/17 11:40:27;;;;;;;8.87;4.03;;;12.70;99.90;;;;;;5120983;27;20205;-74
2021/10/17 11:42:57;;;;;;;8.50;3.90;;;12.90;99.90;;;;;;5125250;27;20201;-74
2021/10/17 11:45:27;;;;;;;9.50;4.40;;;13.00;99.90;;;;;;5120887;27;20223;-73
2021/10/17 11:47:56;;;;;;;8.07;3.70;;;13.00;99.90;;;;;;5124161;27;20196;-74
2021/10/17 11:50:24;;;;;;;12.13;3.80;;;13.00;99.90;;;;;;5122206;27;20211;-74
2021/10/17 11:52:56;;;;;;;11.60;4.10;;;13.10;99.90;;;;;;5123073;27;20197;-74
2021/10/17 11:55:30;;;;;;;9.07;3.80;;;13.20;99.90;;;;;;5124216;27;20567;-74
2021/10/17 11:57:57;;;;;;;9.27;3.70;;;13.20;99.90;;;;;;5120615;27;20201;-74
2021/10/17 12:00:27;;;;;;;11.53;3.90;;;13.30;99.90;;;;;;5120923;27;20208;-74
2021/10/17 12:02:55;;;;;;;9.57;3.73;;;13.40;99.90;;;;;;5122917;27;20270;-74
2021/10/17 12:05:24;;;;;;;11.60;3.77;;;13.50;99.90;;;;;;5124856;27;20200;-74
2021/10/17 12:07:54;;;;;;;9.27;3.93;;;13.40;99.90;;;;;;5117222;27;20201;-74
2021/10/17 12:10:22;;;;;;;8.03;3.70;;;13.30;99.90;;;;;;5113119;27;20204;-74
2021/10/17 12:12:49;;;;;;;8.37;3.93;;;13.30;99.90;;;;;;5121388;27;20224;-74
2021/10/17 12:15:17;;;;;;;10.23;3.90;;;13.20;99.90;;;;;;5114041;27;20197;-74
2021/10/17 12:17:59;;;;;;;6.70;3.83;;;13.30;99.90;;;;;;5122813;27;20570;-74
2021/10/17 12:20:29;;;;;;;8.57;4.03;;;13.20;99.90;;;;;;5114119;27;20212;-74
2021/10/17 12:22:56;;;;;;;8.73;3.50;;;13.30;99.90;;;;;;5118845;27;20287;-74
2021/10/17 12:25:23;;;;;;;13.63;4.23;;;13.30;99.90;;;;;;5121971;27;21007;-74
2021/10/17 12:27:51;;;;;;;10.03;4.57;;;13.20;99.90;;;;;;5124006;27;20209;-74
2021/10/17 12:30:24;;;;;;;11.80;4.50;;;13.20;99.90;;;;;;5116402;27;20216;-74
2021/10/17 12:32:54;;;;;;;8.73;4.33;;;13.00;99.90;;;;;;5117000;27;20192;-74
2021/10/17 12:35:29;;;;;;;12.50;4.63;;;13.20;99.90;;;;;;5121903;27;20624;-74
2021/10/17 12:38:03;;;;;;;12.23;5.30;;;13.40;99.90;;;;;;5116687;27;20200;-74
2021/10/17 12:40:30;;;;;;;8.70;5.10;;;13.40;99.90;;;;;;5120024;27;20211;-74
2021/10/17 12:43:00;;;;;;;9.83;4.17;;;13.20;99.90;;;;;;5117310;27;20205;-74
2021/10/17 12:45:30;;;;;;;12.47;4.50;;;13.30;99.90;;;;;;5116926;27;20258;-74
2021/10/17 12:47:59;;;;;;;12.33;4.70;;;13.40;99.90;;;;;;5116283;27;20204;-74
2021/10/17 12:50:27;;;;;;;10.17;3.93;;;13.50;99.90;;;;;;5116041;27;20663;-74
2021/10/17 12:52:59;;;;;;;7.63;3.67;;;13.50;99.90;;;;;;5123246;27;20200;-74